createdAt,value
2022-10-04T00:00:35.276Z,0.00
2022-10-04T00:01:35.241Z,0.00
2022-10-04T00:02:35.130Z,0.00
2022-10-04T00:03:35.027Z,0.00
2022-10-04T00:04:34.947Z,0.00
2022-10-04T00:05:34.862Z,0.00
2022-10-04T00:06:34.780Z,0.00
2022-10-04T00:07:34.700Z,0.00
2022-10-04T00:08:34.615Z,0.00
2022-10-04T00:09:34.533Z,0.00
2022-10-04T00:10:34.473Z,0.00
2022-10-04T00:11:34.514Z,0.00
2022-10-04T00:12:34.282Z,0.00
2022-10-04T00:13:34.198Z,0.00
2022-10-04T00:14:34.123Z,0.00
2022-10-04T00:15:34.035Z,0.00
2022-10-04T00:16:34.045Z,0.00
2022-10-04T00:17:33.870Z,0.00
2022-10-04T00:18:33.788Z,0.00
2022-10-04T00:19:33.703Z,0.00
2022-10-04T00:20:33.620Z,0.00
2022-10-04T00:21:33.536Z,0.00
2022-10-04T00:22:33.452Z,0.00
2022-10-04T00:23:33.370Z,0.00
2022-10-04T00:24:33.289Z,0.00
2022-10-04T00:25:33.204Z,0.00
2022-10-04T00:26:33.142Z,0.00
2022-10-04T00:27:33.039Z,0.00
2022-10-04T00:28:33.017Z,0.00
2022-10-04T00:29:32.873Z,0.00
2022-10-04T00:30:32.791Z,0.00
2022-10-04T00:31:32.827Z,0.00
2022-10-04T00:32:32.625Z,0.00
2022-10-04T00:33:32.541Z,0.00
2022-10-04T00:34:32.462Z,0.00
2022-10-04T00:35:32.379Z,0.00
2022-10-04T00:36:32.295Z,0.00
2022-10-04T00:37:32.211Z,0.00
2022-10-04T00:38:32.131Z,0.00
2022-10-04T00:39:32.048Z,0.00
2022-10-04T00:40:31.966Z,0.00
2022-10-04T00:41:31.878Z,0.00
2022-10-04T00:42:31.823Z,0.00
2022-10-04T00:43:31.714Z,0.00
2022-10-04T00:44:31.632Z,0.00
2022-10-04T00:45:31.547Z,0.00
2022-10-04T00:46:31.505Z,0.00
2022-10-04T00:47:31.384Z,0.00
2022-10-04T00:48:31.831Z,0.00
2022-10-04T00:49:31.219Z,0.00
2022-10-04T00:50:31.134Z,0.00
2022-10-04T00:51:31.050Z,0.00
2022-10-04T00:52:30.968Z,0.00
2022-10-04T00:53:30.885Z,0.00
2022-10-04T00:54:30.801Z,0.00
2022-10-04T00:55:30.729Z,0.00
2022-10-04T00:56:30.638Z,0.00
2022-10-04T00:57:30.552Z,0.00
2022-10-04T00:58:30.490Z,0.00
2022-10-04T00:59:30.387Z,0.00
2022-10-04T01:00:30.303Z,0.00
2022-10-04T01:01:30.303Z,0.00
2022-10-04T01:02:30.197Z,0.00
2022-10-04T01:03:30.057Z,0.00
2022-10-04T01:04:29.973Z,0.00
2022-10-04T01:05:29.891Z,0.00
2022-10-04T01:06:29.811Z,0.00
2022-10-04T01:07:29.725Z,0.00
2022-10-04T01:08:29.643Z,0.00
2022-10-04T01:09:29.557Z,0.00
2022-10-04T01:10:29.476Z,0.00
2022-10-04T01:11:29.393Z,0.00
2022-10-04T01:12:29.312Z,0.00
2022-10-04T01:13:29.225Z,0.00
2022-10-04T01:14:29.258Z,0.00
2022-10-04T01:15:29.062Z,0.00
2022-10-04T01:16:29.059Z,0.00
2022-10-04T01:17:28.895Z,0.00
2022-10-04T01:18:28.813Z,0.00
2022-10-04T01:19:28.730Z,0.00
2022-10-04T01:20:28.646Z,0.00
2022-10-04T01:21:28.563Z,0.00
2022-10-04T01:22:28.483Z,0.00
2022-10-04T01:23:28.396Z,0.00
2022-10-04T01:24:28.316Z,0.00
2022-10-04T01:25:28.233Z,0.00
2022-10-04T01:26:28.150Z,0.00
2022-10-04T01:27:28.067Z,0.00
2022-10-04T01:28:28.020Z,0.00
2022-10-04T01:29:27.900Z,0.00
2022-10-04T01:30:27.838Z,0.00
2022-10-04T01:31:27.953Z,0.00
2022-10-04T01:32:27.652Z,0.00
2022-10-04T01:33:27.569Z,0.00
2022-10-04T01:34:27.486Z,0.00
2022-10-04T01:35:27.402Z,0.00
2022-10-04T01:36:27.321Z,0.00
2022-10-04T01:37:27.239Z,0.00
2022-10-04T01:38:27.155Z,0.00
2022-10-04T01:39:27.073Z,0.00
2022-10-04T01:40:26.989Z,0.00
2022-10-04T01:41:26.904Z,0.00
2022-10-04T01:42:26.825Z,0.00
2022-10-04T01:43:26.741Z,0.00
2022-10-04T01:44:26.657Z,0.00
2022-10-04T01:45:26.577Z,0.00
2022-10-04T01:46:26.595Z,0.00
2022-10-04T01:47:26.410Z,0.00
2022-10-04T01:48:26.330Z,0.00
2022-10-04T01:49:26.244Z,0.00
2022-10-04T01:50:26.161Z,0.00
2022-10-04T01:51:26.079Z,0.00
2022-10-04T01:52:25.997Z,0.00
2022-10-04T01:53:25.911Z,0.00
2022-10-04T01:54:25.831Z,0.00
2022-10-04T01:55:25.745Z,0.00
2022-10-04T01:56:25.663Z,0.00
2022-10-04T01:57:25.579Z,0.00
2022-10-04T01:58:25.555Z,0.00
2022-10-04T01:59:25.418Z,0.00
2022-10-04T02:00:25.336Z,0.00
2022-10-04T02:01:25.295Z,0.00
2022-10-04T02:02:25.184Z,0.00
2022-10-04T02:03:25.082Z,0.00
2022-10-04T02:04:25.051Z,0.00
2022-10-04T02:05:24.921Z,0.00
2022-10-04T02:06:24.836Z,0.00
2022-10-04T02:07:24.752Z,0.00
2022-10-04T02:08:24.667Z,0.00
2022-10-04T02:09:24.584Z,0.00
2022-10-04T02:10:24.504Z,0.00
2022-10-04T02:11:24.420Z,0.00
2022-10-04T02:12:24.335Z,0.00
2022-10-04T02:13:24.256Z,0.00
2022-10-04T02:14:24.170Z,0.00
2022-10-04T02:15:24.086Z,0.00
2022-10-04T02:16:24.089Z,0.00
2022-10-04T02:17:23.920Z,0.00
2022-10-04T02:18:23.858Z,0.00
2022-10-04T02:19:23.754Z,0.00
2022-10-04T02:20:23.672Z,0.00
2022-10-04T02:21:23.594Z,0.00
2022-10-04T02:22:23.506Z,0.00
2022-10-04T02:23:23.421Z,0.00
2022-10-04T02:24:23.350Z,0.00
2022-10-04T02:25:23.253Z,0.00
2022-10-04T02:26:23.173Z,0.00
2022-10-04T02:27:23.088Z,0.00
2022-10-04T02:28:23.218Z,0.00
2022-10-04T02:29:22.926Z,0.00
2022-10-04T02:30:22.842Z,0.00
2022-10-04T02:31:22.864Z,0.00
2022-10-04T02:32:22.676Z,0.00
2022-10-04T02:33:22.592Z,0.00
2022-10-04T02:34:22.528Z,0.00
2022-10-04T02:35:22.431Z,0.00
2022-10-04T02:36:22.343Z,0.00
2022-10-04T02:37:22.260Z,0.00
2022-10-04T02:38:22.180Z,0.00
2022-10-04T02:39:22.094Z,0.00
2022-10-04T02:40:22.011Z,0.00
2022-10-04T02:41:21.928Z,0.00
2022-10-04T02:42:21.846Z,0.00
2022-10-04T02:43:21.763Z,0.00
2022-10-04T02:44:21.680Z,0.00
2022-10-04T02:45:21.595Z,0.00
2022-10-04T02:46:21.593Z,0.00
2022-10-04T02:47:21.430Z,0.00
2022-10-04T02:48:21.348Z,0.00
2022-10-04T02:49:21.263Z,0.00
2022-10-04T02:50:21.451Z,0.00
2022-10-04T02:51:21.100Z,0.00
2022-10-04T02:52:21.019Z,0.00
2022-10-04T02:53:20.933Z,0.00
2022-10-04T02:54:20.851Z,0.00
2022-10-04T02:55:20.769Z,0.00
2022-10-04T02:56:20.683Z,0.00
2022-10-04T02:57:20.599Z,0.00
2022-10-04T02:58:20.519Z,0.00
2022-10-04T02:59:20.435Z,0.00
2022-10-04T03:00:20.354Z,0.00
2022-10-04T03:01:20.331Z,0.00
2022-10-04T03:02:28.689Z,0.00
2022-10-04T03:03:20.106Z,0.00
2022-10-04T03:04:20.021Z,0.00
2022-10-04T03:05:19.942Z,0.00
2022-10-04T03:06:19.876Z,0.00
2022-10-04T03:07:19.774Z,0.00
2022-10-04T03:08:19.691Z,0.00
2022-10-04T03:09:19.611Z,0.00
2022-10-04T03:10:19.526Z,0.00
2022-10-04T03:11:19.446Z,0.00
2022-10-04T03:12:19.362Z,0.00
2022-10-04T03:13:19.278Z,0.00
2022-10-04T03:14:19.193Z,0.00
2022-10-04T03:15:19.112Z,0.00
2022-10-04T03:16:19.081Z,0.00
2022-10-04T03:17:18.946Z,0.00
2022-10-04T03:18:18.862Z,0.00
2022-10-04T03:19:18.781Z,0.00
2022-10-04T03:20:18.693Z,0.00
2022-10-04T03:21:18.613Z,0.00
2022-10-04T03:22:18.547Z,0.00
2022-10-04T03:23:18.446Z,0.00
2022-10-04T03:24:18.362Z,0.00
2022-10-04T03:25:18.281Z,0.00
2022-10-04T03:26:18.196Z,0.00
2022-10-04T03:27:18.315Z,0.00
2022-10-04T03:28:18.133Z,0.00
2022-10-04T03:29:17.947Z,0.00
2022-10-04T03:30:17.862Z,0.00
2022-10-04T03:31:17.850Z,0.00
2022-10-04T03:32:17.698Z,0.00
2022-10-04T03:33:17.617Z,0.00
2022-10-04T03:34:17.530Z,0.00
2022-10-04T03:35:17.449Z,0.00
2022-10-04T03:36:17.364Z,0.00
2022-10-04T03:37:17.283Z,0.00
2022-10-04T03:38:17.217Z,0.00
2022-10-04T03:39:17.118Z,0.00
2022-10-04T03:40:17.032Z,0.00
2022-10-04T03:41:16.950Z,0.00
2022-10-04T03:42:16.867Z,0.00
2022-10-04T03:43:16.783Z,0.00
2022-10-04T03:44:16.699Z,0.00
2022-10-04T03:45:16.617Z,0.00
2022-10-04T03:46:16.596Z,0.00
2022-10-04T03:47:16.461Z,0.00
2022-10-04T03:48:16.380Z,0.00
2022-10-04T03:49:16.286Z,0.00
2022-10-04T03:50:16.203Z,0.00
2022-10-04T03:51:16.120Z,0.00
2022-10-04T03:52:16.035Z,0.00
2022-10-04T03:53:15.955Z,0.00
2022-10-04T03:54:15.891Z,0.00
2022-10-04T03:55:15.787Z,0.00
2022-10-04T03:56:15.701Z,0.00
2022-10-04T03:57:15.671Z,0.00
2022-10-04T03:58:15.537Z,0.00
2022-10-04T03:59:15.456Z,0.00
2022-10-04T04:00:15.375Z,0.00
2022-10-04T04:01:15.362Z,0.00
2022-10-04T04:02:15.245Z,0.00
2022-10-04T04:03:15.123Z,0.00
2022-10-04T04:04:15.038Z,0.00
2022-10-04T04:05:14.958Z,0.00
2022-10-04T04:06:14.873Z,0.00
2022-10-04T04:07:14.791Z,0.00
2022-10-04T04:08:14.719Z,0.00
2022-10-04T04:09:14.624Z,0.00
2022-10-04T04:10:16.942Z,0.00
2022-10-04T04:11:14.458Z,0.00
2022-10-04T04:12:14.370Z,0.00
2022-10-04T04:13:14.294Z,0.00
2022-10-04T04:14:14.207Z,0.00
2022-10-04T04:15:14.128Z,0.00
2022-10-04T04:16:14.093Z,0.00
2022-10-04T04:17:13.957Z,0.00
2022-10-04T04:18:13.924Z,0.00
2022-10-04T04:19:13.793Z,0.00
2022-10-04T04:20:13.707Z,0.00
2022-10-04T04:21:13.625Z,0.00
2022-10-04T04:22:13.540Z,0.00
2022-10-04T04:23:13.459Z,0.00
2022-10-04T04:24:13.378Z,0.00
2022-10-04T04:25:13.293Z,0.00
2022-10-04T04:26:13.230Z,0.00
2022-10-04T04:27:13.132Z,0.00
2022-10-04T04:28:13.151Z,0.00
2022-10-04T04:29:12.964Z,0.00
2022-10-04T04:30:12.875Z,0.00
2022-10-04T04:31:12.830Z,0.00
2022-10-04T04:32:12.764Z,0.00
2022-10-04T04:33:12.633Z,0.00
2022-10-04T04:34:12.548Z,0.00
2022-10-04T04:35:12.463Z,0.00
2022-10-04T04:36:12.377Z,0.00
2022-10-04T04:37:12.299Z,0.00
2022-10-04T04:38:12.215Z,0.00
2022-10-04T04:39:12.134Z,0.00
2022-10-04T04:40:12.047Z,0.00
2022-10-04T04:41:11.967Z,0.00
2022-10-04T04:42:11.899Z,0.00
2022-10-04T04:43:11.800Z,0.00
2022-10-04T04:44:11.718Z,0.00
2022-10-04T04:45:11.635Z,0.00
2022-10-04T04:46:28.128Z,0.00
2022-10-04T04:47:13.263Z,0.00
2022-10-04T04:48:11.384Z,0.00
2022-10-04T04:49:11.303Z,0.00
2022-10-04T04:50:11.220Z,0.00
2022-10-04T04:51:11.137Z,0.00
2022-10-04T04:52:11.051Z,0.00
2022-10-04T04:53:10.973Z,0.00
2022-10-04T04:54:10.892Z,0.00
2022-10-04T04:55:10.805Z,0.00
2022-10-04T04:56:13.444Z,0.00
2022-10-04T04:57:10.639Z,0.00
2022-10-04T04:58:10.573Z,0.00
2022-10-04T04:59:10.473Z,0.00
2022-10-04T05:00:10.390Z,0.00
2022-10-04T05:01:10.561Z,0.00
2022-10-04T05:02:10.276Z,0.00
2022-10-04T05:03:10.142Z,0.00
2022-10-04T05:04:10.057Z,4.00
2022-10-04T05:05:09.977Z,4.00
2022-10-04T05:06:09.893Z,0.00
2022-10-04T05:07:09.811Z,4.00
2022-10-04T05:08:09.726Z,4.00
2022-10-04T05:09:09.643Z,4.00
2022-10-04T05:10:09.561Z,4.00
2022-10-04T05:11:09.479Z,4.00
2022-10-04T05:12:09.403Z,8.00
2022-10-04T05:13:09.313Z,8.00
2022-10-04T05:14:09.349Z,8.00
2022-10-04T05:15:09.321Z,12.00
2022-10-04T05:16:09.133Z,12.00
2022-10-04T05:17:08.985Z,16.00
2022-10-04T05:18:08.897Z,16.00
2022-10-04T05:19:08.816Z,20.00
2022-10-04T05:20:08.732Z,24.00
2022-10-04T05:21:08.650Z,24.00
2022-10-04T05:22:08.567Z,32.00
2022-10-04T05:23:08.483Z,36.00
2022-10-04T05:24:08.401Z,40.00
2022-10-04T05:25:08.320Z,44.00
2022-10-04T05:26:08.236Z,52.00
2022-10-04T05:27:08.302Z,52.00
2022-10-04T05:28:08.125Z,60.00
2022-10-04T05:29:07.990Z,64.00
2022-10-04T05:30:07.933Z,68.00
2022-10-04T05:31:07.825Z,76.00
2022-10-04T05:32:07.797Z,84.00
2022-10-04T05:33:07.660Z,88.00
2022-10-04T05:34:07.575Z,100.00
2022-10-04T05:35:07.492Z,112.00
2022-10-04T05:36:07.409Z,120.00
2022-10-04T05:37:07.328Z,132.00
2022-10-04T05:38:07.243Z,148.00
2022-10-04T05:39:07.163Z,160.00
2022-10-04T05:40:07.079Z,176.00
2022-10-04T05:41:06.999Z,192.00
2022-10-04T05:42:06.912Z,204.00
2022-10-04T05:43:06.833Z,220.00
2022-10-04T05:44:06.745Z,232.00
2022-10-04T05:45:06.666Z,244.00
2022-10-04T05:46:06.692Z,256.00
2022-10-04T05:47:06.505Z,268.00
2022-10-04T05:48:06.414Z,280.00
2022-10-04T05:49:06.335Z,288.00
2022-10-04T05:50:06.251Z,304.00
2022-10-04T05:51:06.171Z,316.00
2022-10-04T05:52:06.085Z,332.00
2022-10-04T05:53:06.005Z,348.00
2022-10-04T05:54:05.923Z,368.00
2022-10-04T05:55:05.841Z,388.00
2022-10-04T05:56:05.763Z,412.00
2022-10-04T05:57:05.675Z,432.00
2022-10-04T05:58:05.591Z,460.00
2022-10-04T05:59:05.513Z,484.00
2022-10-04T06:00:05.433Z,512.00
2022-10-04T06:01:05.399Z,540.00
2022-10-04T06:02:05.345Z,572.00
2022-10-04T06:03:05.183Z,604.00
2022-10-04T06:04:05.098Z,632.00
2022-10-04T06:05:05.018Z,660.00
2022-10-04T06:06:04.936Z,688.00
2022-10-04T06:07:04.853Z,720.00
2022-10-04T06:08:04.768Z,740.00
2022-10-04T06:09:04.689Z,764.00
2022-10-04T06:10:04.608Z,792.00
2022-10-04T06:11:04.524Z,824.00
2022-10-04T06:12:04.440Z,856.00
2022-10-04T06:13:04.360Z,884.00
2022-10-04T06:14:04.277Z,916.00
2022-10-04T06:15:04.196Z,940.00
2022-10-04T06:16:04.113Z,968.00
2022-10-04T06:17:04.070Z,988.00
2022-10-04T06:18:03.967Z,1004.00
2022-10-04T06:19:03.875Z,1016.00
2022-10-04T06:20:03.786Z,1032.00
2022-10-04T06:21:03.705Z,1052.00
2022-10-04T06:22:03.621Z,1072.00
2022-10-04T06:23:03.543Z,1096.00
2022-10-04T06:24:03.456Z,1124.00
2022-10-04T06:25:03.374Z,1144.00
2022-10-04T06:26:03.297Z,1164.00
2022-10-04T06:27:03.213Z,1176.00
2022-10-04T06:28:03.183Z,1184.00
2022-10-04T06:29:03.049Z,1192.00
2022-10-04T06:30:02.967Z,1204.00
2022-10-04T06:31:02.960Z,1220.00
2022-10-04T06:32:02.807Z,1228.00
2022-10-04T06:33:02.723Z,1232.00
2022-10-04T06:34:02.770Z,1232.00
2022-10-04T06:35:02.561Z,1232.00
2022-10-04T06:36:02.476Z,1232.00
2022-10-04T06:37:02.398Z,1244.00
2022-10-04T06:38:02.315Z,1252.00
2022-10-04T06:39:04.371Z,1248.00
2022-10-04T06:40:02.152Z,1228.00
2022-10-04T06:41:02.071Z,1204.00
2022-10-04T06:42:01.990Z,1184.00
2022-10-04T06:43:01.908Z,1184.00
2022-10-04T06:44:01.836Z,1200.00
2022-10-04T06:45:01.757Z,1236.00
2022-10-04T06:46:01.713Z,1292.00
2022-10-04T06:47:01.581Z,1360.00
2022-10-04T06:48:01.498Z,1440.00
2022-10-04T06:49:01.418Z,1512.00
2022-10-04T06:50:01.441Z,1572.00
2022-10-04T06:51:01.258Z,1628.00
2022-10-04T06:52:01.180Z,1680.00
2022-10-04T06:53:01.094Z,1724.00
2022-10-04T06:54:01.012Z,1768.00
2022-10-04T06:55:00.938Z,1796.00
2022-10-04T06:56:00.849Z,1812.00
2022-10-04T06:57:00.770Z,1844.00
2022-10-04T06:58:00.687Z,1872.00
2022-10-04T06:59:00.612Z,1896.00
2022-10-04T07:00:00.525Z,1920.00
2022-10-04T07:01:00.519Z,1928.00
2022-10-04T07:02:00.428Z,1920.00
2022-10-04T07:03:00.283Z,1896.00
2022-10-04T07:04:00.201Z,1868.00
2022-10-04T07:05:08.803Z,1836.00
2022-10-04T07:06:00.071Z,1800.00
2022-10-04T07:06:59.959Z,1756.00
2022-10-04T07:07:59.887Z,1732.00
2022-10-04T07:08:59.798Z,1728.00
2022-10-04T07:09:59.715Z,1736.00
2022-10-04T07:10:59.637Z,1748.00
2022-10-04T07:11:59.552Z,1748.00
2022-10-04T07:12:59.474Z,1744.00
2022-10-04T07:13:59.390Z,1736.00
2022-10-04T07:14:59.312Z,1752.00
2022-10-04T07:15:59.303Z,1780.00
2022-10-04T07:16:59.147Z,1804.00
2022-10-04T07:17:59.168Z,1820.00
2022-10-04T07:18:58.989Z,1860.00
2022-10-04T07:19:58.908Z,1904.00
2022-10-04T07:20:58.827Z,1936.00
2022-10-04T07:21:58.770Z,1924.00
2022-10-04T07:22:58.664Z,1884.00
2022-10-04T07:23:58.590Z,1860.00
2022-10-04T07:24:58.502Z,1788.00
2022-10-04T07:25:58.525Z,1752.00
2022-10-04T07:26:58.344Z,1748.00
2022-10-04T07:27:58.307Z,1744.00
2022-10-04T07:28:58.432Z,1768.00
2022-10-04T07:29:58.108Z,1800.00
2022-10-04T07:30:58.099Z,1812.00
2022-10-04T07:31:57.940Z,1824.00
2022-10-04T07:32:57.862Z,1852.00
2022-10-04T07:33:57.782Z,1892.00
2022-10-04T07:34:57.706Z,1932.00
2022-10-04T07:35:57.620Z,1984.00
2022-10-04T07:36:57.542Z,2036.00
2022-10-04T07:37:57.510Z,2092.00
2022-10-04T07:38:57.381Z,2148.00
2022-10-04T07:39:57.303Z,2212.00
2022-10-04T07:40:57.220Z,2264.00
2022-10-04T07:41:57.141Z,2328.00
2022-10-04T07:42:57.063Z,2404.00
2022-10-04T07:43:56.981Z,2504.00
2022-10-04T07:44:56.898Z,2648.00
2022-10-04T07:45:56.876Z,2820.00
2022-10-04T07:46:56.741Z,2952.00
2022-10-04T07:47:56.661Z,3084.00
2022-10-04T07:48:56.579Z,3216.00
2022-10-04T07:49:56.503Z,3312.00
2022-10-04T07:50:56.420Z,3332.00
2022-10-04T07:51:56.391Z,3300.00
2022-10-04T07:52:56.263Z,3280.00
2022-10-04T07:53:56.202Z,3264.00
2022-10-04T07:54:56.103Z,3192.00
2022-10-04T07:55:56.024Z,3112.00
2022-10-04T07:56:55.943Z,3040.00
2022-10-04T07:57:55.864Z,2992.00
2022-10-04T07:58:55.790Z,2972.00
2022-10-04T07:59:55.708Z,2940.00
2022-10-04T08:00:55.625Z,2924.00
2022-10-04T08:01:55.615Z,2892.00
2022-10-04T08:02:55.518Z,2852.00
2022-10-04T08:03:55.391Z,2820.00
2022-10-04T08:04:55.310Z,2812.00
2022-10-04T08:05:55.231Z,2832.00
2022-10-04T08:06:55.154Z,2848.00
2022-10-04T08:07:55.073Z,2816.00
2022-10-04T08:08:54.995Z,2732.00
2022-10-04T08:09:54.946Z,2628.00
2022-10-04T08:10:57.266Z,2540.00
2022-10-04T08:11:54.759Z,2496.00
2022-10-04T08:12:54.679Z,2464.00
2022-10-04T08:13:54.601Z,2464.00
2022-10-04T08:14:54.526Z,2464.00
2022-10-04T08:15:54.523Z,2448.00
2022-10-04T08:16:54.361Z,2444.00
2022-10-04T08:17:54.285Z,2456.00
2022-10-04T08:18:54.202Z,2464.00
2022-10-04T08:19:54.125Z,2468.00
2022-10-04T08:20:54.044Z,2476.00
2022-10-04T08:21:53.967Z,2512.00
2022-10-04T08:22:53.888Z,2560.00
2022-10-04T08:23:53.806Z,2604.00
2022-10-04T08:24:53.852Z,2580.00
2022-10-04T08:25:53.669Z,2560.00
2022-10-04T08:26:53.571Z,2552.00
2022-10-04T08:27:53.527Z,2540.00
2022-10-04T08:28:53.418Z,2544.00
2022-10-04T08:29:53.335Z,2588.00
2022-10-04T08:30:53.307Z,2648.00
2022-10-04T08:31:53.176Z,2684.00
2022-10-04T08:32:53.096Z,2736.00
2022-10-04T08:33:53.022Z,2780.00
2022-10-04T08:34:52.938Z,2748.00
2022-10-04T08:35:52.863Z,2716.00
2022-10-04T08:36:52.784Z,2748.00
2022-10-04T08:37:52.706Z,2756.00
2022-10-04T08:38:52.623Z,2780.00
2022-10-04T08:39:52.546Z,2808.00
2022-10-04T08:40:52.466Z,2844.00
2022-10-04T08:41:52.414Z,2848.00
2022-10-04T08:42:52.310Z,2864.00
2022-10-04T08:43:52.233Z,2900.00
2022-10-04T08:44:52.151Z,2944.00
2022-10-04T08:45:52.076Z,3000.00
2022-10-04T08:46:52.101Z,3084.00
2022-10-04T08:47:51.917Z,3200.00
2022-10-04T08:48:51.838Z,3280.00
2022-10-04T08:49:51.758Z,3332.00
2022-10-04T08:50:51.682Z,3388.00
2022-10-04T08:51:51.607Z,3444.00
2022-10-04T08:52:51.623Z,3532.00
2022-10-04T08:53:51.447Z,3600.00
2022-10-04T08:54:51.370Z,3644.00
2022-10-04T08:55:51.290Z,3720.00
2022-10-04T08:56:51.216Z,3756.00
2022-10-04T08:57:51.156Z,3744.00
2022-10-04T08:58:51.058Z,3780.00
2022-10-04T08:59:50.981Z,3752.00
2022-10-04T09:00:50.899Z,3728.00
2022-10-04T09:01:50.894Z,3704.00
2022-10-04T09:02:50.807Z,3664.00
2022-10-04T09:03:50.666Z,3616.00
2022-10-04T09:04:50.588Z,3576.00
2022-10-04T09:05:50.510Z,3548.00
2022-10-04T09:06:50.431Z,3556.00
2022-10-04T09:07:50.353Z,3548.00
2022-10-04T09:08:50.274Z,3540.00
2022-10-04T09:09:50.201Z,3552.00
2022-10-04T09:10:50.119Z,3568.00
2022-10-04T09:11:50.043Z,3608.00
2022-10-04T09:12:49.963Z,3624.00
2022-10-04T09:13:49.979Z,3696.00
2022-10-04T09:14:49.855Z,3696.00
2022-10-04T09:15:49.770Z,3748.00
2022-10-04T09:16:49.648Z,3796.00
2022-10-04T09:17:49.570Z,3864.00
2022-10-04T09:18:49.491Z,3948.00
2022-10-04T09:19:49.417Z,4048.00
2022-10-04T09:20:49.334Z,4184.00
2022-10-04T09:21:49.257Z,4216.00
2022-10-04T09:22:49.179Z,4248.00
2022-10-04T09:23:49.101Z,4244.00
2022-10-04T09:24:49.021Z,4220.00
2022-10-04T09:25:48.946Z,4192.00
2022-10-04T09:26:48.867Z,4148.00
2022-10-04T09:27:55.944Z,4128.00
2022-10-04T09:28:48.714Z,4112.00
2022-10-04T09:29:48.654Z,4100.00
2022-10-04T09:30:48.629Z,4096.00
2022-10-04T09:31:48.480Z,4116.00
2022-10-04T09:32:48.401Z,4104.00
2022-10-04T09:33:48.325Z,4116.00
2022-10-04T09:34:48.246Z,4104.00
2022-10-04T09:35:48.169Z,4072.00
2022-10-04T09:36:48.092Z,4080.00
2022-10-04T09:37:48.015Z,4076.00
2022-10-04T09:38:47.938Z,4052.00
2022-10-04T09:39:47.859Z,4060.00
2022-10-04T09:40:47.781Z,4052.00
2022-10-04T09:41:47.703Z,4036.00
2022-10-04T09:42:47.627Z,4012.00
2022-10-04T09:43:47.651Z,4024.00
2022-10-04T09:44:47.469Z,4020.00
2022-10-04T09:45:47.414Z,4044.00
2022-10-04T09:46:47.728Z,4312.00
2022-10-04T09:47:47.243Z,4588.00
2022-10-04T09:48:47.162Z,4296.00
2022-10-04T09:49:47.088Z,4092.00
2022-10-04T09:50:47.010Z,4048.00
2022-10-04T09:51:46.932Z,4028.00
2022-10-04T09:52:46.856Z,3956.00
2022-10-04T09:53:46.929Z,3924.00
2022-10-04T09:54:46.804Z,3904.00
2022-10-04T09:55:46.625Z,3856.00
2022-10-04T09:56:46.927Z,3956.00
2022-10-04T09:57:46.472Z,4056.00
2022-10-04T09:58:46.394Z,3868.00
2022-10-04T09:59:46.317Z,3912.00
2022-10-04T10:00:46.241Z,4000.00
2022-10-04T10:01:46.337Z,3868.00
2022-10-04T10:02:46.246Z,3904.00
2022-10-04T10:03:46.014Z,3984.00
2022-10-04T10:04:45.931Z,4076.00
2022-10-04T10:05:45.858Z,5288.00
2022-10-04T10:06:46.077Z,5028.00
2022-10-04T10:07:45.703Z,8220.00
2022-10-04T10:08:45.628Z,7832.00
2022-10-04T10:09:45.599Z,6560.00
2022-10-04T10:10:45.474Z,4588.00
2022-10-04T10:11:45.838Z,4472.00
2022-10-04T10:12:45.322Z,5080.00
2022-10-04T10:13:45.291Z,4444.00
2022-10-04T10:14:45.164Z,4468.00
2022-10-04T10:15:45.131Z,5460.00
2022-10-04T10:16:45.512Z,7404.00
2022-10-04T10:17:44.952Z,6868.00
2022-10-04T10:18:44.857Z,6092.00
2022-10-04T10:19:44.780Z,5108.00
2022-10-04T10:20:44.702Z,4816.00
2022-10-04T10:21:44.779Z,4692.00
2022-10-04T10:22:44.552Z,4812.00
2022-10-04T10:23:44.476Z,4824.00
2022-10-04T10:24:44.400Z,4944.00
2022-10-04T10:25:44.322Z,5148.00
2022-10-04T10:26:44.544Z,6208.00
2022-10-04T10:27:44.167Z,7212.00
2022-10-04T10:28:44.093Z,7268.00
2022-10-04T10:29:44.015Z,7452.00
2022-10-04T10:30:43.943Z,7000.00
2022-10-04T10:31:47.713Z,5932.00
2022-10-04T10:32:43.789Z,5744.00
2022-10-04T10:33:43.761Z,5876.00
2022-10-04T10:34:43.640Z,7168.00
2022-10-04T10:35:43.560Z,7524.00
2022-10-04T10:36:43.821Z,8772.00
2022-10-04T10:37:43.405Z,10828.00
2022-10-04T10:38:43.332Z,10424.00
2022-10-04T10:39:43.257Z,7704.00
2022-10-04T10:40:43.179Z,8396.00
2022-10-04T10:41:43.104Z,7700.00
2022-10-04T10:42:43.036Z,8144.00
2022-10-04T10:43:42.949Z,8844.00
2022-10-04T10:44:42.875Z,9660.00
2022-10-04T10:45:42.801Z,9600.00
2022-10-04T10:46:43.171Z,9680.00
2022-10-04T10:47:42.648Z,9968.00
2022-10-04T10:48:42.572Z,10128.00
2022-10-04T10:49:42.517Z,10772.00
2022-10-04T10:50:42.424Z,10208.00
2022-10-04T10:51:42.345Z,9260.00
2022-10-04T10:52:42.272Z,9456.00
2022-10-04T10:53:42.197Z,8752.00
2022-10-04T10:54:42.123Z,9128.00
2022-10-04T10:55:42.056Z,8820.00
2022-10-04T10:56:42.210Z,12684.00
2022-10-04T10:57:41.899Z,10888.00
2022-10-04T10:58:41.823Z,9856.00
2022-10-04T10:59:41.748Z,10208.00
2022-10-04T11:00:41.673Z,16544.00
2022-10-04T11:01:41.928Z,12652.00
2022-10-04T11:02:49.997Z,11704.00
2022-10-04T11:03:41.576Z,13216.00
2022-10-04T11:04:41.374Z,16128.00
2022-10-04T11:05:41.349Z,19168.00
2022-10-04T11:06:41.225Z,15192.00
2022-10-04T11:07:41.151Z,20704.00
2022-10-04T11:08:41.077Z,17472.00
2022-10-04T11:09:41.013Z,21792.00
2022-10-04T11:10:40.935Z,26656.00
2022-10-04T11:11:40.857Z,25792.00
2022-10-04T11:12:41.388Z,15968.00
2022-10-04T11:13:40.761Z,9380.00
2022-10-04T11:14:40.638Z,7380.00
2022-10-04T11:15:40.623Z,6756.00
2022-10-04T11:16:40.588Z,6436.00
2022-10-04T11:17:40.417Z,6168.00
2022-10-04T11:18:40.343Z,6164.00
2022-10-04T11:19:40.268Z,5956.00
2022-10-04T11:20:40.195Z,6048.00
2022-10-04T11:21:40.140Z,6256.00
2022-10-04T11:22:40.051Z,6500.00
2022-10-04T11:23:39.982Z,6664.00
2022-10-04T11:24:39.906Z,6824.00
2022-10-04T11:25:39.830Z,7220.00
2022-10-04T11:26:39.757Z,10512.00
2022-10-04T11:27:39.682Z,11728.00
2022-10-04T11:28:39.665Z,10888.00
2022-10-04T11:29:39.532Z,11824.00
2022-10-04T11:30:39.460Z,12052.00
2022-10-04T11:31:39.437Z,11584.00
2022-10-04T11:32:39.313Z,11032.00
2022-10-04T11:33:39.237Z,12172.00
2022-10-04T11:34:39.163Z,14920.00
2022-10-04T11:35:39.089Z,14232.00
2022-10-04T11:36:39.017Z,16352.00
2022-10-04T11:37:39.013Z,10656.00
2022-10-04T11:38:38.874Z,8160.00
2022-10-04T11:39:42.553Z,10628.00
2022-10-04T11:40:38.726Z,10884.00
2022-10-04T11:41:38.649Z,8980.00
2022-10-04T11:42:38.577Z,23936.00
2022-10-04T11:43:38.501Z,22944.00
2022-10-04T11:44:38.434Z,32352.00
2022-10-04T11:45:38.386Z,46368.00
2022-10-04T11:46:38.319Z,53792.00
2022-10-04T11:47:38.210Z,41280.00
2022-10-04T11:48:38.136Z,31552.00
2022-10-04T11:49:38.065Z,40224.00
2022-10-04T11:50:37.992Z,28544.00
2022-10-04T11:51:37.918Z,37152.00
2022-10-04T11:52:37.849Z,28096.00
2022-10-04T11:53:37.793Z,31328.00
2022-10-04T11:54:37.703Z,42656.00
2022-10-04T11:55:37.634Z,46976.00
2022-10-04T11:56:37.561Z,58240.00
2022-10-04T11:57:37.489Z,57408.00
2022-10-04T11:58:37.421Z,57408.00
2022-10-04T11:59:37.349Z,56000.00
2022-10-04T12:02:19.699Z,55872.00
2022-10-04T12:03:19.708Z,56832.00
2022-10-04T12:04:19.626Z,57216.00
2022-10-04T12:06:19.422Z,56864.00
2022-10-04T12:07:19.352Z,56704.00
2022-10-04T12:09:02.034Z,56736.00
2022-10-04T12:10:04.733Z,56224.00
2022-10-04T12:11:01.639Z,56000.00
2022-10-04T12:12:01.572Z,55648.00
2022-10-04T12:13:43.997Z,54208.00
2022-10-04T12:14:43.933Z,53408.00
2022-10-04T12:15:43.866Z,52736.00
2022-10-04T12:16:44.235Z,52576.00
2022-10-04T12:17:45.149Z,52064.00
2022-10-04T12:18:43.674Z,51776.00
2022-10-04T12:20:36.415Z,51328.00
2022-10-04T12:21:36.542Z,51712.00
2022-10-04T12:22:38.901Z,52064.00
2022-10-04T12:23:36.212Z,52128.00
2022-10-04T12:24:37.381Z,49792.00
2022-10-04T12:25:36.085Z,47296.00
2022-10-04T12:26:36.219Z,46080.00
2022-10-04T12:27:39.189Z,45248.00
2022-10-04T12:28:36.750Z,44384.00
2022-10-04T12:29:35.827Z,43648.00
2022-10-04T12:30:35.762Z,43136.00
2022-10-04T12:31:38.343Z,42688.00
2022-10-04T12:32:35.635Z,42048.00
2022-10-04T12:33:35.572Z,41760.00
2022-10-04T12:37:08.311Z,40704.00
2022-10-04T12:38:43.622Z,40352.00
2022-10-04T12:39:43.593Z,40192.00
2022-10-04T12:40:43.492Z,40192.00
2022-10-04T12:41:43.431Z,40096.00